createdAt,value
2022-11-07T00:00:50.572Z,982.777
2022-11-07T00:02:50.385Z,982.819
2022-11-07T00:04:50.801Z,982.825
2022-11-07T00:06:49.975Z,982.858
2022-11-07T00:08:49.888Z,982.812
2022-11-07T00:10:50.741Z,982.812
2022-11-07T00:12:50.624Z,982.795
2022-11-07T00:14:50.531Z,982.772
2022-11-07T00:16:50.659Z,982.816
2022-11-07T00:18:50.596Z,982.859
2022-11-07T00:20:50.506Z,982.849
2022-11-07T00:22:50.199Z,982.859
2022-11-07T00:24:50.140Z,982.907
2022-11-07T00:26:50.787Z,982.941
2022-11-07T00:28:50.728Z,982.961
2022-11-07T00:30:50.650Z,983.004
2022-11-07T00:32:50.508Z,983.033
2022-11-07T00:34:50.619Z,983.047
2022-11-07T00:36:50.561Z,983.055
2022-11-07T00:38:50.148Z,983.086
2022-11-07T00:40:50.582Z,983.107
2022-11-07T00:42:50.072Z,983.104
2022-11-07T00:44:50.480Z,983.153
2022-11-07T00:46:50.281Z,983.131
2022-11-07T00:48:50.758Z,983.176
2022-11-07T00:50:50.201Z,983.189
2022-11-07T00:52:50.759Z,983.173
2022-11-07T00:54:50.257Z,983.212
2022-11-07T00:56:50.093Z,983.182
2022-11-07T00:58:50.546Z,983.201
2022-11-07T01:00:50.019Z,983.208
2022-11-07T01:02:50.884Z,983.251
2022-11-07T01:04:50.219Z,983.286
2022-11-07T01:06:49.900Z,983.325
2022-11-07T01:08:50.443Z,983.323
2022-11-07T01:10:49.944Z,983.328
2022-11-07T01:12:50.423Z,983.312
2022-11-07T01:14:49.843Z,983.345
2022-11-07T01:16:50.687Z,983.343
2022-11-07T01:18:50.115Z,983.342
2022-11-07T01:20:50.505Z,983.296
2022-11-07T01:22:49.966Z,983.388
2022-11-07T01:24:50.288Z,983.391
2022-11-07T01:26:50.240Z,983.375
2022-11-07T01:28:49.828Z,983.399
2022-11-07T01:30:50.294Z,983.401
2022-11-07T01:32:50.643Z,983.413
2022-11-07T01:34:51.013Z,983.384
2022-11-07T01:36:50.156Z,983.470
2022-11-07T01:38:50.789Z,983.519
2022-11-07T01:40:50.440Z,983.462
2022-11-07T01:42:49.940Z,983.477
2022-11-07T01:44:50.544Z,983.460
2022-11-07T01:46:50.580Z,983.490
2022-11-07T01:48:50.064Z,983.495
2022-11-07T01:50:50.487Z,983.497
2022-11-07T01:52:50.125Z,983.501
2022-11-07T01:54:50.013Z,983.537
2022-11-07T01:56:49.904Z,983.495
2022-11-07T01:58:50.440Z,983.511
2022-11-07T02:00:50.098Z,983.495
2022-11-07T02:02:51.221Z,983.513
2022-11-07T02:04:50.637Z,983.594
2022-11-07T02:06:50.542Z,983.587
2022-11-07T02:08:50.098Z,983.590
2022-11-07T02:10:50.538Z,983.608
2022-11-07T02:12:50.082Z,983.598
2022-11-07T02:14:50.571Z,983.604
2022-11-07T02:16:50.553Z,983.596
2022-11-07T02:18:49.916Z,983.586
2022-11-07T02:20:50.370Z,983.551
2022-11-07T02:22:50.735Z,983.588
2022-11-07T02:24:50.122Z,983.589
2022-11-07T02:26:50.789Z,983.589
2022-11-07T02:28:50.100Z,983.534
2022-11-07T02:30:50.572Z,983.464
2022-11-07T02:32:50.044Z,983.443
2022-11-07T02:34:49.909Z,983.438
2022-11-07T02:36:50.803Z,983.438
2022-11-07T02:38:50.250Z,983.495
2022-11-07T02:40:50.743Z,983.481
2022-11-07T02:42:50.315Z,983.442
2022-11-07T02:44:50.698Z,983.418
2022-11-07T02:46:50.510Z,983.447
2022-11-07T02:48:49.962Z,983.463
2022-11-07T02:50:50.445Z,983.437
2022-11-07T02:52:50.467Z,983.419
2022-11-07T02:54:50.042Z,983.405
2022-11-07T02:56:50.780Z,983.443
2022-11-07T02:58:50.317Z,983.453
2022-11-07T03:00:49.905Z,983.449
2022-11-07T03:02:50.872Z,983.434
2022-11-07T03:04:50.140Z,983.460
2022-11-07T03:06:49.900Z,983.398
2022-11-07T03:08:50.081Z,983.427
2022-11-07T03:10:50.593Z,983.394
2022-11-07T03:12:50.007Z,983.494
2022-11-07T03:14:50.745Z,983.470
2022-11-07T03:16:50.668Z,983.477
2022-11-07T03:18:50.090Z,983.431
2022-11-07T03:20:50.610Z,983.441
2022-11-07T03:22:50.169Z,983.417
2022-11-07T03:24:50.560Z,983.369
2022-11-07T03:26:50.432Z,983.356
2022-11-07T03:28:49.893Z,983.440
2022-11-07T03:30:50.283Z,983.427
2022-11-07T03:32:49.812Z,983.342
2022-11-07T03:34:50.673Z,983.374
2022-11-07T03:36:50.587Z,983.380
2022-11-07T03:38:50.058Z,983.423
2022-11-07T03:40:50.631Z,983.361
2022-11-07T03:42:50.119Z,983.377
2022-11-07T03:44:50.716Z,983.381
2022-11-07T03:46:50.642Z,983.381
2022-11-07T03:48:50.080Z,983.476
2022-11-07T03:50:50.435Z,983.455
2022-11-07T03:52:49.825Z,983.423
2022-11-07T03:54:50.313Z,983.462
2022-11-07T03:56:50.169Z,983.515
2022-11-07T03:58:50.589Z,983.557
2022-11-07T04:00:50.093Z,983.590
2022-11-07T04:02:51.224Z,983.602
2022-11-07T04:04:49.826Z,983.602
2022-11-07T04:06:50.739Z,983.584
2022-11-07T04:08:50.333Z,983.620
2022-11-07T04:10:50.745Z,983.614
2022-11-07T04:12:50.234Z,983.631
2022-11-07T04:14:50.597Z,983.691
2022-11-07T04:16:50.496Z,983.725
2022-11-07T04:18:50.069Z,983.721
2022-11-07T04:20:50.572Z,983.739
2022-11-07T04:22:50.065Z,983.743
2022-11-07T04:24:50.515Z,983.788
2022-11-07T04:26:50.347Z,983.745
2022-11-07T04:28:49.868Z,983.726
2022-11-07T04:30:50.295Z,983.787
2022-11-07T04:32:49.934Z,983.786
2022-11-07T04:34:50.231Z,983.831
2022-11-07T04:36:50.044Z,983.835
2022-11-07T04:38:50.562Z,983.804
2022-11-07T04:40:50.086Z,983.780
2022-11-07T04:42:50.439Z,983.776
2022-11-07T04:44:49.811Z,983.804
2022-11-07T04:46:50.700Z,983.804
2022-11-07T04:48:50.176Z,983.969
2022-11-07T04:50:50.583Z,983.949
2022-11-07T04:52:50.033Z,983.981
2022-11-07T04:54:50.557Z,983.964
2022-11-07T04:56:50.313Z,983.907
2022-11-07T04:58:49.916Z,983.950
2022-11-07T05:00:50.331Z,983.942
2022-11-07T05:02:50.053Z,984.041
2022-11-07T05:04:50.355Z,984.065
2022-11-07T05:06:50.211Z,984.072
2022-11-07T05:08:50.601Z,984.140
2022-11-07T05:10:50.230Z,984.151
2022-11-07T05:12:50.542Z,984.135
2022-11-07T05:14:50.122Z,984.065
2022-11-07T05:16:49.978Z,984.158
2022-11-07T05:18:50.452Z,984.105
2022-11-07T05:20:49.813Z,984.075
2022-11-07T05:22:56.642Z,984.113
2022-11-07T05:24:50.136Z,984.074
2022-11-07T05:26:49.889Z,984.104
2022-11-07T05:28:50.358Z,984.110
2022-11-07T05:30:49.868Z,984.110
2022-11-07T05:32:50.334Z,984.168
2022-11-07T05:34:50.330Z,984.205
2022-11-07T05:36:50.165Z,984.197
2022-11-07T05:38:49.790Z,984.241
2022-11-07T05:40:50.312Z,984.256
2022-11-07T05:42:49.896Z,984.261
2022-11-07T05:44:50.313Z,984.231
2022-11-07T05:46:50.189Z,984.231
2022-11-07T05:48:50.685Z,984.232
2022-11-07T05:50:50.173Z,984.219
2022-11-07T05:52:50.753Z,984.179
2022-11-07T05:54:50.548Z,984.211
2022-11-07T05:56:50.422Z,984.215
2022-11-07T05:58:50.107Z,984.272
2022-11-07T06:00:50.611Z,984.270
2022-11-07T06:02:50.654Z,984.248
2022-11-07T06:04:50.127Z,984.260
2022-11-07T06:06:50.067Z,984.349
2022-11-07T06:08:50.513Z,984.390
2022-11-07T06:10:50.071Z,984.384
2022-11-07T06:12:56.399Z,984.431
2022-11-07T06:14:49.923Z,984.398
2022-11-07T06:16:50.765Z,984.399
2022-11-07T06:18:50.333Z,984.449
2022-11-07T06:20:50.816Z,984.485
2022-11-07T06:22:50.434Z,984.506
2022-11-07T06:24:49.816Z,984.506
2022-11-07T06:26:50.495Z,984.537
2022-11-07T06:28:49.953Z,984.561
2022-11-07T06:30:50.406Z,984.568
2022-11-07T06:32:49.858Z,984.573
2022-11-07T06:34:50.540Z,984.533
2022-11-07T06:37:03.684Z,984.503
2022-11-07T06:38:50.384Z,984.503
2022-11-07T06:40:49.960Z,984.547
2022-11-07T06:42:50.299Z,984.547
2022-11-07T06:44:49.886Z,984.578
2022-11-07T06:46:50.681Z,984.547
2022-11-07T06:48:50.254Z,984.578
2022-11-07T06:50:50.655Z,984.557
2022-11-07T06:52:50.213Z,984.555
2022-11-07T06:54:50.621Z,984.603
2022-11-07T06:56:50.541Z,984.631
2022-11-07T06:58:49.931Z,984.640
2022-11-07T07:00:50.553Z,984.714
2022-11-07T07:02:59.649Z,984.724
2022-11-07T07:04:49.813Z,984.835
2022-11-07T07:06:50.618Z,984.862
2022-11-07T07:08:50.080Z,984.871
2022-11-07T07:10:50.437Z,984.867
2022-11-07T07:12:49.793Z,984.844
2022-11-07T07:14:50.266Z,984.900
2022-11-07T07:16:49.959Z,984.845
2022-11-07T07:18:50.573Z,984.869
2022-11-07T07:20:50.015Z,984.881
2022-11-07T07:23:05.661Z,984.862
2022-11-07T07:24:50.409Z,984.940
2022-11-07T07:26:50.500Z,984.957
2022-11-07T07:28:49.942Z,984.957
2022-11-07T07:30:52.520Z,984.982
2022-11-07T07:32:50.520Z,985.028
2022-11-07T07:34:50.722Z,984.999
2022-11-07T07:36:50.548Z,984.965
2022-11-07T07:38:50.162Z,984.900
2022-11-07T07:40:50.572Z,984.863
2022-11-07T07:42:50.166Z,984.881
2022-11-07T07:44:50.624Z,984.901
2022-11-07T07:46:50.551Z,984.936
2022-11-07T07:48:49.922Z,984.969
2022-11-07T07:50:50.534Z,984.982
2022-11-07T07:52:50.007Z,984.923
2022-11-07T07:54:50.635Z,984.959
2022-11-07T07:56:50.622Z,984.998
2022-11-07T07:58:50.155Z,984.986
2022-11-07T08:00:50.832Z,984.976
2022-11-07T08:02:50.551Z,985.005
2022-11-07T08:04:50.508Z,985.044
2022-11-07T08:06:50.332Z,985.067
2022-11-07T08:08:50.789Z,985.066
2022-11-07T08:10:50.203Z,985.023
2022-11-07T08:12:50.580Z,985.047
2022-11-07T08:14:50.041Z,985.042
2022-11-07T08:16:49.948Z,985.050
2022-11-07T08:18:50.359Z,985.054
2022-11-07T08:20:50.736Z,985.049
2022-11-07T08:22:50.244Z,985.065
2022-11-07T08:24:50.498Z,985.081
2022-11-07T08:26:50.423Z,985.062
2022-11-07T08:28:49.846Z,985.001
2022-11-07T08:30:50.556Z,985.079
2022-11-07T08:32:50.244Z,985.083
2022-11-07T08:34:50.354Z,985.119
2022-11-07T08:36:50.286Z,985.202
2022-11-07T08:38:50.775Z,985.185
2022-11-07T08:40:50.426Z,985.222
2022-11-07T08:42:49.959Z,985.208
2022-11-07T08:44:50.701Z,985.177
2022-11-07T08:46:50.618Z,985.125
2022-11-07T08:48:50.253Z,985.121
2022-11-07T08:50:50.759Z,985.152
2022-11-07T08:52:50.247Z,985.107
2022-11-07T08:54:50.680Z,985.112
2022-11-07T08:56:50.545Z,985.130
2022-11-07T08:58:49.923Z,985.151
2022-11-07T09:00:50.750Z,985.141
2022-11-07T09:03:44.612Z,985.085
2022-11-07T09:04:50.555Z,985.020
2022-11-07T09:06:49.834Z,984.998
2022-11-07T09:08:50.369Z,984.966
2022-11-07T09:10:50.810Z,984.957
2022-11-07T09:12:50.240Z,984.957
2022-11-07T09:14:50.673Z,984.981
2022-11-07T09:16:50.618Z,984.927
2022-11-07T09:18:49.923Z,984.949
2022-11-07T09:20:50.508Z,985.042
2022-11-07T09:22:50.070Z,985.019
2022-11-07T09:24:50.557Z,985.039
2022-11-07T09:26:50.466Z,985.073
2022-11-07T09:29:01.028Z,985.069
2022-11-07T09:30:49.835Z,985.075
2022-11-07T09:32:50.269Z,985.069
2022-11-07T09:35:05.168Z,985.029
2022-11-07T09:36:50.637Z,985.064
2022-11-07T09:38:50.290Z,985.072
2022-11-07T09:40:50.766Z,985.048
2022-11-07T09:42:50.244Z,985.036
2022-11-07T09:44:50.687Z,985.037
2022-11-07T09:46:50.544Z,985.056
2022-11-07T09:48:49.990Z,985.047
2022-11-07T09:50:50.646Z,985.051
2022-11-07T09:52:50.106Z,985.082
2022-11-07T09:54:50.604Z,985.086
2022-11-07T09:56:50.478Z,985.119
2022-11-07T09:58:50.052Z,985.183
2022-11-07T10:00:50.616Z,985.128
2022-11-07T10:02:50.457Z,985.155
2022-11-07T10:04:50.445Z,985.151
2022-11-07T10:06:50.331Z,985.185
2022-11-07T10:08:49.827Z,985.181
2022-11-07T10:10:50.694Z,985.153
2022-11-07T10:12:50.446Z,985.151
2022-11-07T10:14:50.088Z,985.066
2022-11-07T10:16:50.024Z,985.155
2022-11-07T10:18:50.485Z,985.185
2022-11-07T10:20:49.996Z,985.211
2022-11-07T10:22:50.559Z,985.171
2022-11-07T10:24:49.972Z,985.173
2022-11-07T10:26:50.794Z,985.156
2022-11-07T10:28:50.242Z,985.128
2022-11-07T10:30:49.910Z,985.174
2022-11-07T10:32:50.389Z,985.159
2022-11-07T10:34:55.021Z,985.198
2022-11-07T10:36:50.775Z,985.120
2022-11-07T10:38:50.257Z,985.096
2022-11-07T10:40:50.737Z,985.050
2022-11-07T10:42:50.210Z,985.076
2022-11-07T10:44:50.714Z,985.086
2022-11-07T10:46:55.138Z,985.031
2022-11-07T10:48:50.579Z,984.971
2022-11-07T10:50:49.999Z,985.042
2022-11-07T10:52:50.444Z,984.977
2022-11-07T10:54:49.932Z,984.949
2022-11-07T10:56:50.768Z,984.954
2022-11-07T10:58:50.305Z,985.034
2022-11-07T11:00:49.951Z,984.942
2022-11-07T11:02:50.476Z,984.929
2022-11-07T11:04:51.600Z,984.888
2022-11-07T11:06:50.518Z,984.872
2022-11-07T11:08:50.061Z,984.906
2022-11-07T11:10:50.546Z,984.817
2022-11-07T11:12:50.060Z,984.783
2022-11-07T11:14:50.482Z,984.783
2022-11-07T11:16:50.514Z,984.783
2022-11-07T11:18:50.169Z,984.766
2022-11-07T11:20:50.678Z,984.780
2022-11-07T11:22:50.167Z,984.785
2022-11-07T11:24:51.021Z,984.722
2022-11-07T11:26:49.959Z,984.653
2022-11-07T11:28:50.393Z,984.673
2022-11-07T11:30:50.430Z,984.673
2022-11-07T11:32:50.004Z,984.645
2022-11-07T11:34:49.911Z,984.643
2022-11-07T11:36:50.796Z,984.643
2022-11-07T11:38:50.289Z,984.576
2022-11-07T11:40:49.841Z,984.583
2022-11-07T11:42:50.369Z,984.553
2022-11-07T11:44:49.879Z,984.502
2022-11-07T11:46:50.760Z,984.546
2022-11-07T11:48:50.489Z,984.491
2022-11-07T11:50:50.570Z,984.409
2022-11-07T11:52:49.981Z,984.389
2022-11-07T11:54:50.568Z,984.370
2022-11-07T11:56:50.445Z,984.358
2022-11-07T11:58:49.953Z,984.352
2022-11-07T12:00:50.428Z,984.276
2022-11-07T12:02:50.195Z,984.248
2022-11-07T12:04:50.184Z,984.296
2022-11-07T12:06:50.112Z,984.445
2022-11-07T12:08:50.663Z,984.363
2022-11-07T12:10:50.324Z,984.363
2022-11-07T12:12:49.884Z,984.349
2022-11-07T12:14:58.272Z,984.427
2022-11-07T12:16:50.313Z,984.414
2022-11-07T12:18:49.801Z,984.469
2022-11-07T12:20:50.375Z,984.407
2022-11-07T12:22:49.895Z,984.533
2022-11-07T12:24:50.354Z,984.466
2022-11-07T12:26:50.256Z,984.426
2022-11-07T12:28:50.769Z,984.376
2022-11-07T12:30:50.432Z,984.357
2022-11-07T12:32:49.835Z,984.368
2022-11-07T12:34:49.855Z,984.314
2022-11-07T12:36:50.664Z,984.314
2022-11-07T12:38:50.320Z,984.339
2022-11-07T12:40:49.914Z,984.243
2022-11-07T12:42:50.572Z,984.221
2022-11-07T12:44:50.424Z,984.271
2022-11-07T12:46:50.321Z,984.293
2022-11-07T12:48:49.825Z,984.276
2022-11-07T12:50:50.327Z,984.248
2022-11-07T12:52:50.726Z,984.301
2022-11-07T12:54:50.266Z,984.299
2022-11-07T12:56:50.089Z,984.259
2022-11-07T12:58:50.546Z,984.268
2022-11-07T13:00:50.209Z,984.262
2022-11-07T13:02:49.863Z,984.186
2022-11-07T13:04:50.722Z,984.087
2022-11-07T13:06:50.763Z,984.093
2022-11-07T13:08:50.424Z,984.137
2022-11-07T13:10:49.963Z,984.141
2022-11-07T13:12:50.569Z,984.124
2022-11-07T13:14:50.033Z,984.184
2022-11-07T13:16:50.013Z,984.156
2022-11-07T13:18:50.563Z,984.172
2022-11-07T13:20:50.143Z,984.173
2022-11-07T13:22:50.684Z,984.224
2022-11-07T13:24:50.765Z,984.224
2022-11-07T13:26:50.536Z,984.338
2022-11-07T13:28:50.133Z,984.362
2022-11-07T13:30:50.668Z,984.283
2022-11-07T13:32:50.300Z,984.409
2022-11-07T13:34:50.465Z,984.409
2022-11-07T13:36:50.290Z,984.508
2022-11-07T13:38:50.752Z,984.556
2022-11-07T13:40:50.206Z,984.660
2022-11-07T13:42:50.769Z,984.692
2022-11-07T13:44:50.182Z,984.758
2022-11-07T13:46:50.081Z,984.761
2022-11-07T13:48:50.772Z,984.790
2022-11-07T13:50:50.588Z,984.859
2022-11-07T13:52:50.379Z,984.885
2022-11-07T13:54:50.471Z,984.921
2022-11-07T13:56:50.364Z,984.939
2022-11-07T13:58:50.766Z,984.862
2022-11-07T14:00:51.073Z,984.810
2022-11-07T14:02:50.342Z,984.788
2022-11-07T14:05:16.139Z,984.763
2022-11-07T14:06:50.482Z,984.679
2022-11-07T14:08:49.989Z,984.690
2022-11-07T14:10:50.444Z,984.726
2022-11-07T14:12:49.935Z,984.734
2022-11-07T14:14:50.352Z,984.746
2022-11-07T14:16:50.500Z,984.703
2022-11-07T14:18:50.038Z,984.686
2022-11-07T14:20:50.123Z,984.756
2022-11-07T14:22:50.725Z,984.739
2022-11-07T14:24:50.233Z,984.718
2022-11-07T14:26:50.048Z,984.695
2022-11-07T14:28:50.021Z,984.669
2022-11-07T14:30:49.932Z,984.671
2022-11-07T14:32:49.871Z,984.644
2022-11-07T14:34:49.917Z,984.624
2022-11-07T14:36:50.761Z,984.628
2022-11-07T14:38:50.361Z,984.600
2022-11-07T14:40:49.902Z,984.585
2022-11-07T14:42:50.700Z,984.587
2022-11-07T14:44:56.329Z,984.624
2022-11-07T14:46:50.324Z,984.671
2022-11-07T14:48:49.858Z,984.641
2022-11-07T14:50:51.565Z,984.556
2022-11-07T14:52:50.058Z,984.568
2022-11-07T14:54:49.906Z,984.557
2022-11-07T14:56:49.831Z,984.564
2022-11-07T14:58:50.480Z,984.552
2022-11-07T15:00:49.926Z,984.575
2022-11-07T15:02:50.994Z,984.543
2022-11-07T15:04:50.805Z,984.542
2022-11-07T15:06:50.263Z,984.571
2022-11-07T15:08:50.729Z,984.599
2022-11-07T15:10:50.172Z,984.599
2022-11-07T15:12:50.712Z,984.648
2022-11-07T15:14:50.092Z,984.623
2022-11-07T15:16:50.081Z,984.575
2022-11-07T15:18:50.559Z,984.560
2022-11-07T15:20:50.236Z,984.566
2022-11-07T15:22:50.834Z,984.552
2022-11-07T15:24:50.393Z,984.550
2022-11-07T15:26:50.358Z,984.651
2022-11-07T15:28:49.855Z,984.635
2022-11-07T15:30:50.376Z,984.672
2022-11-07T15:32:50.785Z,984.667
2022-11-07T15:35:29.974Z,984.700
2022-11-07T15:36:49.931Z,984.703
2022-11-07T15:38:50.516Z,984.666
2022-11-07T15:40:49.854Z,984.666
2022-11-07T15:42:50.443Z,984.697
2022-11-07T15:44:49.831Z,984.708
2022-11-07T15:46:50.628Z,984.695
2022-11-07T15:48:50.047Z,984.693
2022-11-07T15:50:50.660Z,984.704
2022-11-07T15:52:50.218Z,984.657
2022-11-07T15:54:49.926Z,984.604
2022-11-07T15:56:58.796Z,984.656
2022-11-07T15:58:50.469Z,984.680
2022-11-07T16:00:50.159Z,984.692
2022-11-07T16:02:51.790Z,984.640
2022-11-07T16:04:50.417Z,984.650
2022-11-07T16:06:50.315Z,984.636
2022-11-07T16:08:49.904Z,984.672
2022-11-07T16:10:50.650Z,984.671
2022-11-07T16:12:50.257Z,984.674
2022-11-07T16:14:49.832Z,984.708
2022-11-07T16:16:50.673Z,984.711
2022-11-07T16:18:50.205Z,984.740
2022-11-07T16:20:50.684Z,984.756
2022-11-07T16:22:50.236Z,984.726
2022-11-07T16:24:50.706Z,984.717
2022-11-07T16:26:50.495Z,984.724
2022-11-07T16:28:50.070Z,984.738
2022-11-07T16:30:50.459Z,984.762
2022-11-07T16:32:49.896Z,984.801
2022-11-07T16:34:50.097Z,984.823
2022-11-07T16:36:49.932Z,984.775
2022-11-07T16:38:50.301Z,984.807
2022-11-07T16:40:49.833Z,984.833
2022-11-07T16:42:50.239Z,984.841
2022-11-07T16:44:51.031Z,984.826
2022-11-07T16:46:49.979Z,984.865
2022-11-07T16:48:50.598Z,984.876
2022-11-07T16:50:50.120Z,984.895
2022-11-07T16:52:50.757Z,984.913
2022-11-07T16:54:50.308Z,984.932
2022-11-07T16:56:50.065Z,984.926
2022-11-07T16:58:50.573Z,984.925
2022-11-07T17:00:50.162Z,984.889
2022-11-07T17:02:51.335Z,984.895
2022-11-07T17:04:50.727Z,984.875
2022-11-07T17:06:50.235Z,984.859
2022-11-07T17:08:50.733Z,984.835
2022-11-07T17:10:50.175Z,984.847
2022-11-07T17:12:50.640Z,984.806
2022-11-07T17:14:50.145Z,984.779
2022-11-07T17:16:49.979Z,984.816
2022-11-07T17:18:50.529Z,984.783
2022-11-07T17:20:52.780Z,984.789
2022-11-07T17:22:50.388Z,984.792
2022-11-07T17:24:49.876Z,984.779
2022-11-07T17:26:50.715Z,984.790
2022-11-07T17:28:50.085Z,984.764
2022-11-07T17:30:50.623Z,984.785
2022-11-07T17:32:50.045Z,984.787
2022-11-07T17:36:50.508Z,984.822
2022-11-07T17:38:49.926Z,984.822
2022-11-07T17:40:50.382Z,984.812
2022-11-07T17:42:50.774Z,984.822
2022-11-07T17:44:50.230Z,984.799
2022-11-07T17:46:50.043Z,984.807
2022-11-07T17:48:50.529Z,984.801
2022-11-07T17:50:49.915Z,984.824
2022-11-07T17:52:50.422Z,984.780
2022-11-07T17:54:49.952Z,984.763
2022-11-07T17:56:50.806Z,984.750
2022-11-07T17:58:50.301Z,984.751
2022-11-07T18:00:50.736Z,984.755
2022-11-07T18:02:51.014Z,984.801
2022-11-07T18:04:50.467Z,984.773
2022-11-07T18:06:50.344Z,984.726
2022-11-07T18:08:53.521Z,984.810
2022-11-07T18:10:56.800Z,984.823
2022-11-07T18:12:50.379Z,984.792
2022-11-07T18:14:49.840Z,984.849
2022-11-07T18:16:50.626Z,984.807
2022-11-07T18:18:50.022Z,984.799
2022-11-07T18:20:50.414Z,984.763
2022-11-07T18:22:49.944Z,984.809
2022-11-07T18:24:50.469Z,984.839
2022-11-07T18:26:50.267Z,984.774
2022-11-07T18:28:50.748Z,984.715
2022-11-07T18:30:50.327Z,984.686
2022-11-07T18:32:50.674Z,984.620
2022-11-07T18:34:50.558Z,984.631
2022-11-07T18:36:50.483Z,984.681
2022-11-07T18:38:50.067Z,984.704
2022-11-07T18:40:50.476Z,984.731
2022-11-07T18:42:49.999Z,984.696
2022-11-07T18:44:50.450Z,984.748
2022-11-07T18:46:50.195Z,984.720
2022-11-07T18:48:50.734Z,984.716
2022-11-07T18:50:50.426Z,984.697
2022-11-07T18:52:50.426Z,984.703
2022-11-07T18:54:50.054Z,984.749
2022-11-07T18:56:49.899Z,984.728
2022-11-07T18:58:50.478Z,984.743
2022-11-07T19:00:50.083Z,984.742
2022-11-07T19:02:50.781Z,984.746
2022-11-07T19:04:49.998Z,984.756
2022-11-07T19:06:49.939Z,984.780
2022-11-07T19:08:50.283Z,984.713
2022-11-07T19:10:50.756Z,984.723
2022-11-07T19:12:50.207Z,984.739
2022-11-07T19:14:50.725Z,984.703
2022-11-07T19:16:50.571Z,984.726
2022-11-07T19:18:50.272Z,984.743
2022-11-07T19:20:49.800Z,984.754
2022-11-07T19:22:50.211Z,984.795
2022-11-07T19:24:49.834Z,984.870
2022-11-07T19:26:50.644Z,984.885
2022-11-07T19:28:50.155Z,984.912
2022-11-07T19:30:50.572Z,984.871
2022-11-07T19:32:50.045Z,984.893
2022-11-07T19:34:50.034Z,984.869
2022-11-07T19:36:50.786Z,984.823
2022-11-07T19:38:50.243Z,984.817
2022-11-07T19:40:49.876Z,984.835
2022-11-07T19:42:50.400Z,984.784
2022-11-07T19:44:56.901Z,984.813
2022-11-07T19:46:50.730Z,984.797
2022-11-07T19:48:49.888Z,984.781
2022-11-07T19:50:50.455Z,984.838
2022-11-07T19:52:49.919Z,984.864
2022-11-07T19:54:50.366Z,984.898
2022-11-07T19:56:58.029Z,984.912
2022-11-07T19:58:50.334Z,984.959
2022-11-07T20:00:49.966Z,984.942
2022-11-07T20:02:50.760Z,984.930
2022-11-07T20:04:50.263Z,984.917
2022-11-07T20:06:50.173Z,984.881
2022-11-07T20:08:50.587Z,984.888
2022-11-07T20:10:49.983Z,984.902
2022-11-07T20:12:50.558Z,984.913
2022-11-07T20:14:50.011Z,984.907
2022-11-07T20:16:50.752Z,984.859
2022-11-07T20:18:50.276Z,984.886
2022-11-07T20:20:50.685Z,984.890
2022-11-07T20:22:50.152Z,984.933
2022-11-07T20:24:50.686Z,984.923
2022-11-07T20:26:50.629Z,984.931
2022-11-07T20:28:50.094Z,984.919
2022-11-07T20:30:50.620Z,984.973
2022-11-07T20:32:49.932Z,984.949
2022-11-07T20:34:54.330Z,984.957
2022-11-07T20:36:50.102Z,985.025
2022-11-07T20:38:50.713Z,985.007
2022-11-07T20:40:50.123Z,985.024
2022-11-07T20:42:50.718Z,985.016
2022-11-07T20:44:50.174Z,985.068
2022-11-07T20:46:50.178Z,985.099
2022-11-07T20:48:50.669Z,985.094
2022-11-07T20:50:50.233Z,985.073
2022-11-07T20:52:50.691Z,985.086
2022-11-07T20:54:50.238Z,985.010
2022-11-07T20:56:50.026Z,985.014
2022-11-07T20:58:50.587Z,985.078
2022-11-07T21:00:50.296Z,985.078
2022-11-07T21:02:50.089Z,985.112
2022-11-07T21:05:18.197Z,985.074
2022-11-07T21:06:49.931Z,985.074
2022-11-07T21:08:50.429Z,985.094
2022-11-07T21:10:50.260Z,985.123
2022-11-07T21:12:51.220Z,985.082
2022-11-07T21:14:50.809Z,985.060
2022-11-07T21:16:50.622Z,985.096
2022-11-07T21:18:50.068Z,985.096
2022-11-07T21:20:50.496Z,985.106
2022-11-07T21:22:49.920Z,985.128
2022-11-07T21:24:50.384Z,985.132
2022-11-07T21:26:50.148Z,985.107
2022-11-07T21:28:50.720Z,985.145
2022-11-07T21:30:50.176Z,985.086
2022-11-07T21:32:50.672Z,985.060
2022-11-07T21:34:50.767Z,985.057
2022-11-07T21:36:50.504Z,985.063
2022-11-07T21:38:49.922Z,985.031
2022-11-07T21:40:50.499Z,985.066
2022-11-07T21:42:50.001Z,985.101
2022-11-07T21:44:50.600Z,985.084
2022-11-07T21:46:49.968Z,985.070
2022-11-07T21:48:50.536Z,985.097
2022-11-07T21:50:50.219Z,985.097
2022-11-07T21:52:49.892Z,985.108
2022-11-07T21:54:50.361Z,985.029
2022-11-07T21:56:50.405Z,985.013
2022-11-07T21:58:49.833Z,985.032
2022-11-07T22:00:50.310Z,985.000
2022-11-07T22:02:49.949Z,985.014
2022-11-07T22:04:49.870Z,985.008
2022-11-07T22:06:50.642Z,984.950
2022-11-07T22:08:50.206Z,984.989
2022-11-07T22:10:50.706Z,984.986
2022-11-07T22:12:50.176Z,985.007
2022-11-07T22:14:50.672Z,985.023
2022-11-07T22:16:50.484Z,985.022
2022-11-07T22:18:49.903Z,985.004
2022-11-07T22:20:50.283Z,985.046
2022-11-07T22:22:49.837Z,985.069
2022-11-07T22:24:50.218Z,985.044
2022-11-07T22:26:50.119Z,985.045
2022-11-07T22:28:50.578Z,985.060
2022-11-07T22:30:50.200Z,985.044
2022-11-07T22:32:50.680Z,985.006
2022-11-07T22:34:50.732Z,985.029
2022-11-07T22:36:50.571Z,985.032
2022-11-07T22:38:50.154Z,985.024
2022-11-07T22:40:50.632Z,985.016
2022-11-07T22:42:50.472Z,985.017
2022-11-07T22:44:49.973Z,984.962
2022-11-07T22:46:49.927Z,984.959
2022-11-07T22:48:50.491Z,984.971
2022-11-07T22:50:49.938Z,984.963
2022-11-07T22:52:50.505Z,984.918
2022-11-07T22:54:49.990Z,984.951
2022-11-07T22:56:49.853Z,984.957
2022-11-07T22:58:50.278Z,984.944
2022-11-07T23:00:49.951Z,984.945
2022-11-07T23:02:50.762Z,984.944
2022-11-07T23:04:50.173Z,984.950
2022-11-07T23:06:50.128Z,984.976
2022-11-07T23:08:50.620Z,984.915
2022-11-07T23:10:50.083Z,984.930
2022-11-07T23:12:50.656Z,984.883
2022-11-07T23:14:50.145Z,984.852
2022-11-07T23:16:50.094Z,984.842
2022-11-07T23:18:50.608Z,984.789
2022-11-07T23:20:50.262Z,984.804
2022-11-07T23:22:50.744Z,984.768
2022-11-07T23:24:50.343Z,984.792
2022-11-07T23:26:50.211Z,984.795
2022-11-07T23:28:50.784Z,984.766
2022-11-07T23:30:50.214Z,984.758
2022-11-07T23:32:50.748Z,984.731
2022-11-07T23:34:50.677Z,984.716
2022-11-07T23:36:50.472Z,984.784
2022-11-07T23:38:49.904Z,984.767
2022-11-07T23:40:50.404Z,984.754
2022-11-07T23:42:49.828Z,984.742
2022-11-07T23:44:50.394Z,984.736
2022-11-07T23:46:50.207Z,984.724
2022-11-07T23:48:50.725Z,984.698
2022-11-07T23:50:50.156Z,984.689
2022-11-07T23:52:50.705Z,984.698
2022-11-07T23:54:50.096Z,984.643
2022-11-07T23:56:49.875Z,984.659
2022-11-07T23:58:50.346Z,984.637
